Natchez, MS

1:10 AM CST on December 12, 2017 (GMT -0600)
Hardy-Anders-Adams County

Weather History for KHEZ - December, 2013

Change the Weather History Date:

Saturday, December 7, 2013

  Actual Average Record
Temperature  
Mean Temperature 32 °F -  
Max Temperature 33 °F 62 °F 83 °F (1978)
Min Temperature 30 °F 41 °F 18 °F (1937)
Degree Days  
Heating Degree Days 34    
Moisture  
Dew Point 28 °F    
Average Humidity 89    
Maximum Humidity 93    
Minimum Humidity 80    
Precipitation  
Precipitation 0.00 in - - ()
Sea Level Pressure  
Sea Level Pressure 30.33 in    
Wind  
Wind Speed 12 mph (NNE)    
Max Wind Speed 18 mph    
Max Gust Speed 24 mph    
Visibility 7 miles    
Events      
Averages and records for this station are not official NWS values.
T = Trace of Precipitation, MM = Missing Value Source: NWS Daily Summary

Daily Weather History Graph

Daily Weather History Graph

Search for Another Location

Airport or City:

Trip Planner

Search our weather history database for the weather conditions in past years. The results will help you decide how hot, cold, wet, or windy it might be!

Date:

Astronomy

Dec. 07, 2013 Rise Set
Actual Time 6:51 AM CST 5:01 PM CST
Civil Twilight 6:25 AM CST 5:28 PM CST
Nautical Twilight 5:54 AM CST 5:58 PM CST
Astronomical Twilight 5:25 AM CST 6:28 PM CST
Moon 10:49 AM CST (12/7) 10:29 PM CST (12/7)
Length of Visible Light 11h 03m
Length of Day
10h 09m
Waxing Crescent, 29% of the Moon is Illuminated
Dec 7
Waxing Crescent
Dec 9
First Quarter
Dec 17
Full
Dec 25
Last Quarter
Jan 1
New

Hourly Weather History & Observations

Time (CST) Temp. Windchill Dew Point Humidity Pressure Visibility Wind Dir Wind Speed Gust Speed Precip Events Conditions
12:15 AM 33.8 °F 22.8 °F 30.2 °F 87% 30.31 in 5.0 mi North 18.4 mph 23.0 mph N/A   Overcast
12:35 AM 32.0 °F 22.1 °F 30.2 °F 93% 30.32 in 4.0 mi North 13.8 mph 23.0 mph N/A   Overcast
12:55 AM 32.0 °F 22.5 °F 30.2 °F 93% 30.31 in 3.0 mi North 12.7 mph - N/A   Overcast
1:15 AM 32.0 °F 23.0 °F 28.4 °F 87% 30.32 in 2.5 mi North 11.5 mph 20.7 mph N/A   Overcast
1:35 AM 32.0 °F 22.5 °F 28.4 °F 87% 30.32 in 3.0 mi North 12.7 mph - N/A   Overcast
1:55 AM 32.0 °F 22.1 °F 30.2 °F 93% 30.32 in 8.0 mi North 13.8 mph 19.6 mph N/A   Overcast
2:15 AM 32.0 °F 23.0 °F 28.4 °F 87% 30.33 in 10.0 mi North 11.5 mph 18.4 mph N/A   Overcast
2:35 AM 32.0 °F 20.8 °F 28.4 °F 87% 30.33 in 10.0 mi North 17.3 mph 23.0 mph N/A   Overcast
2:55 AM 32.0 °F 22.1 °F 28.4 °F 87% 30.33 in 10.0 mi North 13.8 mph 19.6 mph N/A   Overcast
3:15 AM 32.0 °F 22.5 °F 28.4 °F 87% 30.33 in 10.0 mi North 12.7 mph - N/A   Overcast
3:35 AM 32.0 °F 20.8 °F 28.4 °F 87% 30.33 in 10.0 mi North 17.3 mph 20.7 mph N/A   Overcast
3:55 AM 30.2 °F 20.2 °F 28.4 °F 93% 30.33 in 10.0 mi North 12.7 mph 18.4 mph N/A   Overcast
4:15 AM 30.2 °F 20.2 °F 28.4 °F 93% 30.33 in 10.0 mi North 12.7 mph 17.3 mph N/A   Overcast
4:35 AM 30.2 °F 19.3 °F 26.6 °F 86% 30.33 in 10.0 mi North 15.0 mph 20.7 mph N/A   Overcast
4:55 AM 30.2 °F 20.2 °F 26.6 °F 86% 30.33 in 10.0 mi North 12.7 mph 21.9 mph N/A   Overcast
5:15 AM 30.2 °F 19.8 °F 26.6 °F 86% 30.34 in 10.0 mi North 13.8 mph 23.0 mph N/A   Overcast
5:35 AM 30.2 °F 20.2 °F 28.4 °F 93% 30.35 in 10.0 mi North 12.7 mph 18.4 mph N/A   Overcast
5:55 AM 30.2 °F 19.3 °F 26.6 °F 86% 30.35 in 10.0 mi North 15.0 mph 24.2 mph N/A   Overcast
6:15 AM 30.2 °F 22.6 °F 26.6 °F 86% 30.36 in 10.0 mi North 8.1 mph - N/A   Overcast
6:35 AM 30.2 °F 19.3 °F 28.4 °F 93% 30.37 in 10.0 mi North 15.0 mph 21.9 mph N/A   Overcast
6:55 AM 30.2 °F 20.2 °F 26.6 °F 86% 30.37 in 10.0 mi North 12.7 mph 19.6 mph N/A   Overcast
7:15 AM 30.2 °F 19.8 °F 26.6 °F 86% 30.37 in 10.0 mi North 13.8 mph 19.6 mph N/A   Overcast
7:35 AM 30.2 °F 19.3 °F 26.6 °F 86% 30.38 in 10.0 mi North 15.0 mph 20.7 mph N/A   Overcast
7:55 AM 30.2 °F 20.8 °F 26.6 °F 86% 30.39 in 10.0 mi NNE 11.5 mph 19.6 mph N/A   Overcast
8:15 AM 30.2 °F 20.8 °F 26.6 °F 86% 30.39 in 10.0 mi NNE 11.5 mph 17.3 mph N/A   Overcast
8:35 AM 30.2 °F 20.8 °F 26.6 °F 86% 30.40 in 10.0 mi NNE 11.5 mph 16.1 mph N/A   Overcast
8:55 AM 30.2 °F 21.3 °F 28.4 °F 93% 30.40 in 10.0 mi NNE 10.4 mph 17.3 mph N/A   Overcast
9:15 AM 30.2 °F 19.3 °F 28.4 °F 93% 30.39 in 10.0 mi North 15.0 mph - N/A   Overcast
9:35 AM 30.2 °F 20.2 °F 28.4 °F 93% 30.40 in 9.0 mi NNE 12.7 mph 23.0 mph N/A   Overcast
9:55 AM 30.2 °F 20.2 °F 28.4 °F 93% 30.40 in 9.0 mi North 12.7 mph 17.3 mph N/A   Overcast
10:15 AM 30.2 °F 19.8 °F 28.4 °F 93% 30.39 in 8.0 mi NNE 13.8 mph 21.9 mph N/A   Overcast
10:35 AM 30.2 °F 20.8 °F 28.4 °F 93% 30.39 in 8.0 mi NNE 11.5 mph 20.7 mph N/A   Overcast
10:55 AM 30.2 °F 21.3 °F 28.4 °F 93% 30.38 in 8.0 mi NNE 10.4 mph 19.6 mph N/A   Overcast
11:15 AM 30.2 °F 20.2 °F 28.4 °F 93% 30.38 in 7.0 mi NNE 12.7 mph 19.6 mph N/A   Overcast
11:35 AM 30.2 °F 20.2 °F 28.4 °F 93% 30.37 in 7.0 mi North 12.7 mph 19.6 mph N/A   Overcast
11:55 AM 32.0 °F 24.2 °F 28.4 °F 87% 30.36 in 8.0 mi NNE 9.2 mph - N/A   Overcast
12:15 PM 32.0 °F 22.1 °F 28.4 °F 87% 30.35 in 8.0 mi North 13.8 mph - N/A   Overcast
12:35 PM 32.0 °F 22.1 °F 28.4 °F 87% 30.35 in 8.0 mi NNE 13.8 mph 19.6 mph N/A   Overcast
12:55 PM 32.0 °F 23.0 °F 26.6 °F 80% 30.33 in 8.0 mi NNE 11.5 mph 16.1 mph N/A   Overcast
1:15 PM 32.0 °F 23.0 °F 28.4 °F 87% 30.33 in 8.0 mi North 11.5 mph 17.3 mph N/A   Overcast
1:35 PM 32.0 °F 22.5 °F 28.4 °F 87% 30.32 in 7.0 mi NNE 12.7 mph 16.1 mph N/A   Overcast
1:55 PM 32.0 °F 22.5 °F 28.4 °F 87% 30.32 in 7.0 mi NNE 12.7 mph 17.3 mph N/A   Overcast
2:15 PM 32.0 °F 22.1 °F 28.4 °F 87% 30.31 in 7.0 mi NNE 13.8 mph 17.3 mph N/A   Overcast
2:35 PM 32.0 °F 23.0 °F 28.4 °F 87% 30.30 in 7.0 mi NNE 11.5 mph 17.3 mph N/A   Overcast
2:55 PM 32.0 °F 23.6 °F 28.4 °F 87% 30.30 in 7.0 mi North 10.4 mph - N/A   Overcast
3:15 PM 32.0 °F 24.8 °F 28.4 °F 87% 30.30 in 7.0 mi NNE 8.1 mph - N/A   Overcast
3:35 PM 32.0 °F 24.2 °F 28.4 °F 87% 30.29 in 7.0 mi North 9.2 mph - N/A   Overcast
3:55 PM 32.0 °F 25.6 °F 28.4 °F 87% 30.29 in 7.0 mi NNE 6.9 mph - N/A   Overcast
4:15 PM 32.0 °F 23.6 °F 28.4 °F 87% 30.29 in 8.0 mi NE 10.4 mph - N/A   Overcast
4:35 PM 32.0 °F 23.6 °F 28.4 °F 87% 30.28 in 8.0 mi NNE 10.4 mph - N/A   Overcast
4:55 PM 32.0 °F 25.6 °F 26.6 °F 80% 30.28 in 8.0 mi NE 6.9 mph - N/A   Overcast
5:15 PM 32.0 °F 23.6 °F 28.4 °F 87% 30.28 in 10.0 mi NNE 10.4 mph - N/A   Overcast
5:35 PM 32.0 °F 24.8 °F 26.6 °F 80% 30.28 in 9.0 mi NNE 8.1 mph - N/A   Overcast
5:55 PM 32.0 °F 24.8 °F 28.4 °F 87% 30.29 in 8.0 mi North 8.1 mph - N/A   Overcast
6:15 PM 32.0 °F 24.2 °F 28.4 °F 87% 30.29 in 8.0 mi North 9.2 mph - N/A   Overcast
6:35 PM 32.0 °F 24.8 °F 28.4 °F 87% 30.29 in 8.0 mi NNE 8.1 mph - N/A   Overcast
6:55 PM 32.0 °F 25.6 °F 28.4 °F 87% 30.28 in 7.0 mi NE 6.9 mph - N/A   Overcast
7:15 PM 32.0 °F 24.8 °F 28.4 °F 87% 30.28 in 5.0 mi NNE 8.1 mph - N/A   Overcast
7:35 PM 32.0 °F 26.4 °F 28.4 °F 87% 30.29 in 5.0 mi NNE 5.8 mph - N/A   Overcast
7:55 PM 32.0 °F 25.6 °F 28.4 °F 87% 30.29 in 3.0 mi NNE 6.9 mph - N/A   Overcast
8:15 PM 32.0 °F 26.4 °F 28.4 °F 87% 30.28 in 3.0 mi NNE 5.8 mph - N/A   Overcast
8:35 PM 32.0 °F 25.6 °F 28.4 °F 87% 30.28 in 2.5 mi North 6.9 mph - N/A   Overcast
8:55 PM 32.0 °F 27.5 °F 30.2 °F 93% 30.28 in 2.0 mi NNE 4.6 mph - N/A   Overcast
9:15 PM 32.0 °F 26.4 °F 30.2 °F 93% 30.27 in 1.8 mi NNE 5.8 mph - N/A   Overcast
9:35 PM 32.0 °F 28.7 °F 30.2 °F 93% 30.28 in 1.5 mi NNE 3.5 mph - N/A   Overcast
9:55 PM 32.0 °F 28.7 °F 30.2 °F 93% 30.29 in 2.0 mi North 3.5 mph - N/A   Overcast
10:15 PM 32.0 °F - 30.2 °F 93% 30.29 in 2.0 mi Calm Calm - N/A   Overcast
10:35 PM 32.0 °F 28.7 °F 30.2 °F 93% 30.29 in 1.8 mi North 3.5 mph - N/A   Overcast
10:55 PM 32.0 °F - 30.2 °F 93% 30.30 in 1.8 mi Calm Calm - N/A   Overcast
11:15 PM 32.0 °F 27.5 °F 30.2 °F 93% 30.29 in 2.0 mi North 4.6 mph - N/A   Overcast
11:35 PM 32.0 °F 28.7 °F 30.2 °F 93% 30.29 in 2.0 mi North 3.5 mph - N/A   Overcast
11:55 PM 32.0 °F 27.5 °F 30.2 °F 93% 30.28 in 2.5 mi North 4.6 mph - N/A   Overcast